createdAt,value
2018-05-12T17:16:36.641Z,25.30
2018-05-12T17:19:03.468Z,25.30
2018-05-12T17:21:30.210Z,25.10
2018-05-12T17:23:57.054Z,25.10
2018-05-12T17:26:23.803Z,25.20
2018-05-12T17:28:50.635Z,25.30
2018-05-12T17:31:17.478Z,25.30
2018-05-12T17:33:45.137Z,25.40
2018-05-12T17:36:12.081Z,25.40
2018-05-12T17:38:39.025Z,25.30
2018-05-12T17:41:05.868Z,25.20
2018-05-12T17:43:32.715Z,25.20
2018-05-12T17:45:59.561Z,25.10
2018-05-12T17:48:26.393Z,25.00
2018-05-12T17:50:53.236Z,25.00
2018-05-12T17:53:19.975Z,25.10
2018-05-12T17:55:46.902Z,25.00
2018-05-12T17:58:13.866Z,24.80
2018-05-12T18:00:40.711Z,24.70
2018-05-12T18:03:10.551Z,24.40
2018-05-12T18:05:39.677Z,24.50
2018-05-12T18:08:07.380Z,24.40
2018-05-12T18:10:34.218Z,24.30
2018-05-12T18:13:01.070Z,24.20
2018-05-12T18:15:27.870Z,24.20
2018-05-12T18:17:54.646Z,24.20
2018-05-12T18:20:21.484Z,24.00
2018-05-12T18:22:48.225Z,24.10
2018-05-12T18:25:15.067Z,23.90
2018-05-12T18:27:41.909Z,23.90
2018-05-12T18:30:08.752Z,23.80
2018-05-12T18:32:35.594Z,23.80
2018-05-12T18:35:02.437Z,23.70
2018-05-12T18:37:29.278Z,23.70
2018-05-12T18:39:56.120Z,23.80
2018-05-12T18:42:22.961Z,23.80
2018-05-12T18:44:49.803Z,23.70
2018-05-12T18:47:16.651Z,23.40
2018-05-12T18:49:43.591Z,23.40
2018-05-12T18:52:10.434Z,23.60
2018-05-12T18:54:37.376Z,23.60
2018-05-12T18:57:04.224Z,23.70
2018-05-12T18:59:31.070Z,23.60
2018-05-12T19:01:57.909Z,23.40
2018-05-12T19:04:24.749Z,23.30
2018-05-12T19:06:51.792Z,23.50
2018-05-12T19:09:18.745Z,23.40
2018-05-12T19:11:45.682Z,23.50
2018-05-12T19:14:12.525Z,23.60
2018-05-12T19:16:39.469Z,23.60
2018-05-12T19:19:06.226Z,23.60
2018-05-12T19:21:33.049Z,23.40
2018-05-12T19:23:59.900Z,23.50
2018-05-12T19:26:26.939Z,23.50
2018-05-12T19:28:53.780Z,23.30
2018-05-12T19:31:20.623Z,23.40
2018-05-12T19:33:48.285Z,23.30
2018-05-12T19:36:15.124Z,23.30
2018-05-12T19:38:41.967Z,23.30
2018-05-12T19:41:08.812Z,23.50
2018-05-12T19:43:35.652Z,23.40
2018-05-12T19:46:02.494Z,23.30
2018-05-12T19:48:30.071Z,23.30
2018-05-12T19:50:57.000Z,23.30
2018-05-12T19:53:23.942Z,23.30
2018-05-12T19:55:50.784Z,23.10
2018-05-12T19:58:17.636Z,23.30
2018-05-12T20:00:44.473Z,23.30
2018-05-12T20:03:11.309Z,23.30
2018-05-12T20:05:38.079Z,23.30
2018-05-12T20:08:05.917Z,23.10
2018-05-12T20:10:32.758Z,23.10
2018-05-12T20:12:59.602Z,23.00
2018-05-12T20:15:26.442Z,23.00
2018-05-12T20:17:53.285Z,23.00
2018-05-12T20:20:20.128Z,23.00
2018-05-12T20:22:46.969Z,23.10
2018-05-12T20:25:13.814Z,23.00
2018-05-12T20:27:40.553Z,23.10
2018-05-12T20:30:07.394Z,23.10
2018-05-12T20:32:34.235Z,23.20
2018-05-12T20:35:01.077Z,23.20
2018-05-12T20:37:27.981Z,23.00
2018-05-12T20:39:54.864Z,22.60
2018-05-12T20:42:21.706Z,22.50
2018-05-12T20:44:48.553Z,22.20
2018-05-12T20:47:15.313Z,21.70
2018-05-12T20:49:42.949Z,21.20
2018-05-12T20:52:09.790Z,21.20
2018-05-12T20:54:36.633Z,21.30
2018-05-12T20:57:03.577Z,20.90
2018-05-12T20:59:30.338Z,21.10
2018-05-12T21:05:23.600Z,21.00
2018-05-12T21:17:07.396Z,20.80
2018-05-12T21:19:34.236Z,20.80
2018-05-12T21:22:01.080Z,20.90
2018-05-12T21:24:27.961Z,20.80
2018-05-12T21:26:55.592Z,20.70
2018-05-12T21:29:22.656Z,20.70
2018-05-12T21:31:50.188Z,21.00
2018-05-12T21:34:17.031Z,20.90
2018-05-12T21:36:43.874Z,21.10
2018-05-12T21:39:10.716Z,21.20
2018-05-12T21:41:37.572Z,21.20
2018-05-12T21:44:04.405Z,20.90
2018-05-12T21:46:31.651Z,21.00
2018-05-12T21:48:58.596Z,21.30
2018-05-12T21:51:25.440Z,21.50
2018-05-12T21:53:52.282Z,21.50
2018-05-12T21:56:19.123Z,21.50
2018-05-12T21:58:46.069Z,21.50
2018-05-12T22:01:12.910Z,21.40
2018-05-12T22:03:39.765Z,21.40
2018-05-12T22:06:06.602Z,21.40
2018-05-12T22:08:33.434Z,21.30
2018-05-12T22:11:00.277Z,21.40
2018-05-12T22:13:27.119Z,21.40
2018-05-12T22:15:53.962Z,21.30
2018-05-12T22:18:20.802Z,21.50
2018-05-12T22:20:47.647Z,21.30
2018-05-12T22:23:14.795Z,21.20
2018-05-12T22:25:41.636Z,21.00
2018-05-12T22:28:08.479Z,21.10
2018-05-12T22:30:35.456Z,21.10
2018-05-12T22:33:02.370Z,21.10
2018-05-12T22:35:29.323Z,20.90
2018-05-12T22:37:56.157Z,20.80
2018-05-12T22:40:23.100Z,20.70
2018-05-12T22:42:49.945Z,20.90
2018-05-12T22:45:16.783Z,20.80
2018-05-12T22:47:43.833Z,20.80
2018-05-12T22:50:10.778Z,20.80
2018-05-12T22:52:37.621Z,21.00
2018-05-12T22:55:04.463Z,21.10
2018-05-12T22:57:31.302Z,21.00
2018-05-12T22:59:58.259Z,21.10
2018-05-12T23:02:25.087Z,21.10
2018-05-12T23:04:52.034Z,21.10
2018-05-12T23:07:18.873Z,21.00
2018-05-12T23:09:45.924Z,20.90
2018-05-12T23:12:12.686Z,21.10
2018-05-12T23:14:40.323Z,21.00
2018-05-12T23:17:07.164Z,21.00
2018-05-12T23:19:34.008Z,21.00
2018-05-12T23:22:00.847Z,20.80
2018-05-12T23:24:27.690Z,20.70
2018-05-12T23:26:54.635Z,20.70
2018-05-12T23:29:21.477Z,20.70
2018-05-12T23:31:48.316Z,20.70
2018-05-12T23:34:15.159Z,20.60
2018-05-12T23:36:42.012Z,20.70
2018-05-12T23:39:08.847Z,20.80
2018-05-12T23:41:35.686Z,20.50
2018-05-12T23:44:02.531Z,20.50
2018-05-12T23:46:29.370Z,20.60
2018-05-12T23:48:56.220Z,20.40
2018-05-12T23:51:23.390Z,20.30
2018-05-12T23:53:50.204Z,20.30
2018-05-12T23:56:17.049Z,20.10
2018-05-12T23:58:43.891Z,20.00
